Language selection

Features

My Weather Profile Weather Topics  | 

Laurentian Fan: Past 24 Hour Conditions

 

Banquereau - 44139

05:00 AM AST 06 December 2019Buoy position: 44.27N 57.08W
Disclaimer

This table is a summary of hourly weather conditions for the past 24 hours.
Please note that these observations might not always be representative of weather conditions over their associated marine area.

Date / Time
(AST)
Wind(knots) Wave height(m) Wave period(s) Pressure(kPa) Air tempC) Water tempC)
06 December 2019
5:00 WNW 22 gust 29 2.8 12.0 100.2 7 10
4:00 WNW 23 gust 29 2.8 11.0 100.1 7 10
3:00 WNW 23 gust 27 2.6 10.0 100.1 7 10
2:00 WNW 23 gust 29 2.7 10.0 100.0 8 11
1:00 WNW 19 gust 25 2.6 10.0 99.9 8 11
0:00 NW 10 gust 13 2.6 9.0 99.9 8 11
05 December 2019
23:00 NNE 4 gust 6 2.9 12.0 99.9 7 11
22:00 ENE 6 gust 10 2.8 9.0 99.8 7 11
21:00 E 6 gust 8 2.9 12.0 99.8 8 11
20:00 ESE 8 gust 12 3.0 11.0 99.8 8 11
19:00 E 8 gust 10 3.3 11.0 99.8 7 11
18:00 ESE 8 gust 10 3.2 11.0 99.9 7 11
17:00 ENE 8 gust 12 3.1 11.0 99.8 7 11
16:00 E 6 gust 8 3.3 11.0 99.8 7 11
15:00 ESE 2 gust 6 3.5 11.0 99.8 7 11
14:00 WNW 6 gust 8 3.6 11.0 99.8 6 11
13:00 W 10 gust 16 3.7 11.0 99.9 6 10
12:00 W 12 gust 16 3.7 10.0 99.9 6 10
11:00 WNW 10 gust 13 3.8 10.0 99.9 6 10
10:00 NW 17 gust 23 3.7 12.0 99.8 6 10
9:00 NNW 19 gust 23 4.1 12.0 99.5 7 11
8:00 N 23 gust 33 3.9 12.0 99.2 7 11
7:00 NNW 35 gust 43 4.0 11.0 99.1 7 11
6:00 ENE 27 gust 33 3.9 12.0 98.6 8 11
5:00 NE 25 gust 33 3.7 13.0 99.0 8 10

Zoom-in to make a selection

Map of Atlantic - Newfoundland marine weather areas Banquereau - 44139 Blanc-Sablon Airport Cap Whittle Chevery Natashquan Airport Heath Point Îles de la Madeleine Airport Miscou Island Eskasoni (First Nations) Grand Étang Ingonish Beach North Mountain St.Paul Island J.A. Douglas McCurdy Sydney Airport Charlottetown Airport East Point North Cape Argentia Bonavista Burgeo Cape Race Corner Brook Daniel's Harbour Englee Ferolle Point La Scie Port aux Basques Rocky Harbour Sagona Island St. Anthony Airport St. John's Int'l Airport St. Lawrence Stephenville Airport Twillingate Winterland Branch Hill Wreckhouse Grates Cove Pool's Island Marticot Island Long Pond Cartwright Airport Mary's Harbour
Legend:
buoy Buoy
land station Land Station

Atlantic - Newfoundland Area

Another Region

What we are doing

Date modified: